Time;durP1;ratioP1;P1;durP2;ratioP2;P2;SDS_P1;SDS_P2;PMS_P1;PMS_P2;Temp;Humidity;BMP_temperature;BMP_pressure;BME280_temperature;BME280_humidity;BME280_pressure;Samples;Min_cycle;Max_cycle;Signal;HPM_P1;HPM_P2
2022/06/03 00:01:25;;;;;;;15.93;10.05;;;16.50;99.90;16.50;98709.00;;;;5029173;28;87598;-61
2022/06/03 00:04:16;;;;;;;11.60;9.80;;;16.50;99.90;16.50;98703.00;;;;5005295;28;87342;-62
2022/06/03 00:07:15;;;;;;;13.27;10.30;;;16.50;99.90;16.40;98704.00;;;;5025266;28;87061;-63
2022/06/03 00:10:06;;;;;;;12.45;10.38;;;16.30;99.90;16.30;98700.00;;;;5029983;28;87461;-62
2022/06/03 00:12:57;;;;;;;14.48;11.35;;;16.30;99.90;16.30;98702.00;;;;5023659;28;89737;-62
2022/06/03 00:15:52;;;;;;;14.73;11.05;;;16.20;99.90;16.20;98697.00;;;;5032559;28;90018;-61
2022/06/03 00:18:48;;;;;;;13.43;11.02;;;16.20;99.90;16.20;98697.00;;;;4997675;28;87229;-62
2022/06/03 00:21:41;;;;;;;14.85;11.10;;;16.20;99.90;16.10;98692.00;;;;5032941;28;87617;-62
2022/06/03 00:24:27;;;;;;;18.35;11.40;;;16.10;99.90;16.10;98699.00;;;;5023393;28;87476;-63
2022/06/03 00:26:59;;;;;;;14.35;11.00;;;16.10;99.90;16.10;98700.00;;;;5030102;28;87994;-62
2022/06/03 00:30:15;;;;;;;15.82;12.18;;;16.10;99.90;16.10;98709.00;;;;5003387;28;87769;-62
2022/06/03 00:33:07;;;;;;;15.90;12.50;;;16.10;99.90;16.10;98711.00;;;;5034629;28;86979;-61
2022/06/03 00:36:04;;;;;;;16.38;12.52;;;16.10;99.90;16.10;98709.00;;;;5024302;28;87695;-62
2022/06/03 00:39:06;;;;;;;15.05;11.98;;;16.00;99.90;16.00;98709.00;;;;5036713;28;87456;-62
2022/06/03 00:41:46;;;;;;;16.77;12.43;;;16.00;99.90;16.00;98717.00;;;;5031373;28;87913;-62
2022/06/03 00:45:05;;;;;;;16.98;12.80;;;16.10;99.90;16.00;98719.00;;;;5006267;28;86906;-63
2022/06/03 00:47:50;;;;;;;16.83;13.90;;;16.00;99.90;16.10;98736.00;;;;5028825;28;87041;-63
2022/06/03 00:51:06;;;;;;;18.85;13.43;;;16.00;99.90;16.00;98728.00;;;;5040834;28;87270;-62
2022/06/03 00:54:16;;;;;;;17.83;13.13;;;16.00;99.90;16.00;98730.00;;;;5036973;28;86844;-62
2022/06/03 00:57:20;;;;;;;18.85;14.40;;;16.00;99.90;16.00;98724.00;;;;5020485;28;87724;-62
2022/06/03 01:00:04;;;;;;;17.73;14.18;;;16.00;99.90;16.00;98731.00;;;;5041877;28;87796;-63
2022/06/03 01:03:07;;;;;;;17.85;13.38;;;16.00;99.90;16.00;98725.00;;;;5035879;28;88512;-62
2022/06/03 01:06:07;;;;;;;23.80;14.90;;;16.00;99.90;16.00;98712.00;;;;5042273;28;86923;-61
2022/06/03 01:08:50;;;;;;;17.13;15.30;;;16.10;99.90;16.10;98716.00;;;;5016547;28;87321;-61
2022/06/03 01:11:23;;;;;;;18.92;14.82;;;16.10;99.90;16.10;98707.00;;;;5031538;28;89877;-61
2022/06/03 01:14:02;;;;;;;20.52;16.80;;;16.10;99.90;16.20;98718.00;;;;5031630;28;88201;-62
2022/06/03 01:17:05;;;;;;;22.95;16.27;;;16.10;99.90;16.20;98710.00;;;;5032678;28;87356;-63
2022/06/03 01:19:49;;;;;;;25.05;17.77;;;16.10;99.90;16.20;98723.00;;;;5032021;28;87467;-62
2022/06/03 01:22:36;;;;;;;20.38;17.05;;;16.10;99.90;16.20;98702.00;;;;5014480;28;87566;-63
2022/06/03 01:25:43;;;;;;;22.08;17.88;;;16.10;99.90;16.10;98693.00;;;;5033820;28;87991;-62
2022/06/03 01:28:12;;;;;;;20.98;16.88;;;16.10;99.90;16.10;98690.00;;;;5016893;28;87930;-62
2022/06/03 01:31:09;;;;;;;23.05;19.20;;;16.10;99.90;16.20;98688.00;;;;5027533;28;86432;-63
2022/06/03 01:34:09;;;;;;;24.35;17.60;;;16.10;99.90;16.10;98695.00;;;;5032285;28;87571;-63
2022/06/03 01:37:22;;;;;;;20.83;16.33;;;16.10;99.90;16.10;98685.00;;;;5023596;28;87395;-63
2022/06/03 01:40:24;;;;;;;22.75;16.50;;;16.10;99.90;16.20;98672.00;;;;5024709;28;88011;-62
2022/06/03 01:43:34;;;;;;;20.20;15.67;;;16.10;99.90;16.20;98678.00;;;;5035122;28;87478;-62
2022/06/03 01:46:40;;;;;;;16.80;15.02;;;16.20;99.90;16.20;98682.00;;;;5011209;28;86899;-62
2022/06/03 01:49:26;;;;;;;21.35;15.65;;;16.20;99.90;16.30;98679.00;;;;4951564;28;87195;-62
2022/06/03 01:52:46;;;;;;;16.67;14.93;;;16.30;99.90;16.40;98684.00;;;;4994931;28;86990;-62
2022/06/03 01:55:52;;;;;;;16.73;14.85;;;16.30;99.90;16.50;98689.00;;;;4983396;28;87257;-61
2022/06/03 01:59:03;;;;;;;18.05;13.82;;;16.60;99.90;16.90;98692.00;;;;5037632;28;87618;-62
2022/06/03 02:01:44;;;;;;;14.77;11.20;;;17.00;99.90;17.30;98675.00;;;;5013714;28;88382;-62
2022/06/03 02:04:30;;;;;;;17.37;12.30;;;17.10;99.90;17.40;98679.00;;;;5032827;28;86832;-62
2022/06/03 02:07:44;;;;;;;16.80;11.52;;;17.10;99.90;17.30;98672.00;;;;5011651;28;88317;-62
2022/06/03 02:10:50;;;;;;;15.50;11.75;;;17.10;99.90;17.30;98681.00;;;;4960550;28;88784;-62
2022/06/03 02:13:43;;;;;;;13.60;10.57;;;17.20;99.90;17.30;98682.00;;;;4966505;28;88313;-62
2022/06/03 02:16:45;;;;;;;12.82;10.70;;;17.10;99.90;17.40;98675.00;;;;5029321;28;87529;-63
2022/06/03 02:20:03;;;;;;;16.45;10.18;;;17.20;99.90;17.40;98677.00;;;;4986929;28;87239;-62
2022/06/03 02:22:41;;;;;;;13.43;11.15;;;17.20;99.90;17.40;98680.00;;;;5028215;28;88688;-62
2022/06/03 02:25:35;;;;;;;16.90;10.82;;;17.20;99.90;17.40;98670.00;;;;5030845;28;87342;-62
2022/06/03 02:30:24;;;;;;;12.13;10.10;;;17.50;99.90;17.70;98679.00;;;;5038065;28;87153;-62
2022/06/03 02:32:18;;;;;;;13.57;9.02;;;18.00;99.90;18.40;98663.00;;;;5030849;28;86156;-61
2022/06/03 02:35:02;;;;;;;10.20;7.68;;;18.70;99.90;19.20;98660.00;;;;5040725;28;86918;-64
2022/06/03 02:38:15;;;;;;;11.90;8.35;;;19.10;99.90;19.70;98663.00;;;;5011131;28;88420;-62
2022/06/03 02:41:00;;;;;;;9.75;7.80;;;19.80;99.90;20.20;98660.00;;;;5012264;28;88301;-61
2022/06/03 02:43:54;;;;;;;11.07;7.30;;;20.10;99.90;20.60;98656.00;;;;5036105;28;86795;-61
2022/06/03 02:46:57;;;;;;;9.65;7.38;;;20.70;99.90;21.20;98650.00;;;;5009131;28;87864;-62
2022/06/03 02:49:32;;;;;;;11.10;7.25;;;21.70;99.90;21.60;98656.00;;;;5031988;28;87784;-62
2022/06/03 02:52:17;;;;;;;8.65;7.35;;;;;21.90;98661.00;;;;5038552;28;86979;-62
2022/06/03 02:55:19;;;;;;;11.50;7.03;;;21.50;99.90;22.20;98662.00;;;;5015223;28;87127;-62
2022/06/03 02:58:25;;;;;;;10.10;6.50;;;21.80;99.90;22.50;98663.00;;;;5034690;28;87675;-62
2022/06/03 03:01:15;;;;;;;11.20;7.18;;;22.20;99.90;22.80;98658.00;;;;5016841;28;89138;-63
2022/06/03 03:04:02;;;;;;;11.70;6.75;;;22.40;99.90;23.00;98663.00;;;;5014831;28;87011;-62
2022/06/03 03:06:40;;;;;;;11.45;7.07;;;22.30;99.90;22.90;98665.00;;;;5031694;28;86962;-62
2022/06/03 03:09:34;;;;;;;11.98;6.65;;;22.30;99.90;22.80;98665.00;;;;5029590;28;89182;-63
2022/06/03 03:12:40;;;;;;;10.73;6.90;;;22.20;99.90;22.80;98661.00;;;;4996692;28;88195;-63
2022/06/03 03:15:27;;;;;;;9.82;7.00;;;22.20;99.90;22.80;98665.00;;;;5029381;28;87032;-63
2022/06/03 03:18:12;;;;;;;10.15;7.00;;;22.50;99.90;23.10;98662.00;;;;5014854;28;87408;-62
2022/06/03 03:20:58;;;;;;;11.57;6.63;;;22.70;99.90;23.40;98661.00;;;;5033192;28;88673;-62
2022/06/03 03:23:47;;;;;;;9.13;6.60;;;22.80;99.90;23.50;98662.00;;;;4988160;28;88559;-64
2022/06/03 03:26:31;;;;;;;10.93;6.68;;;22.70;99.90;23.40;98660.00;;;;5030586;28;86947;-62
2022/06/03 03:29:19;;;;;;;10.15;7.10;;;23.00;99.90;23.70;98666.00;;;;5014297;28;86665;-63
2022/06/03 03:32:20;;;;;;;9.63;6.93;;;23.10;99.90;23.90;98666.00;;;;5030482;28;88206;-62
2022/06/03 03:35:15;;;;;;;14.30;7.03;;;23.10;99.90;23.80;98666.00;;;;5034329;28;87216;-61
2022/06/03 03:38:15;;;;;;;11.02;6.93;;;23.20;99.90;23.80;98667.00;;;;5003147;28;88114;-63
2022/06/03 03:41:30;;;;;;;9.32;5.68;;;23.40;99.90;24.20;98665.00;;;;5032089;28;86994;-62
2022/06/03 03:44:42;;;;;;;11.23;6.88;;;23.40;99.90;24.10;98662.00;;;;5021745;28;87679;-61
2022/06/03 03:47:39;;;;;;;12.95;6.85;;;23.30;99.90;24.00;98661.00;;;;5007301;28;88439;-62
2022/06/03 03:50:26;;;;;;;10.70;6.35;;;23.00;99.90;23.70;98653.00;;;;5027342;28;86996;-62
2022/06/03 03:53:06;;;;;;;9.95;6.53;;;;;24.00;98651.00;;;;5027877;28;87016;-61
2022/06/03 03:56:09;;;;;;;10.03;6.17;;;23.40;99.90;24.20;98642.00;;;;5003218;28;88560;-60
2022/06/03 03:58:51;;;;;;;13.63;7.32;;;23.50;99.90;24.40;98645.00;;;;5034451;28;87368;-60
2022/06/03 04:01:23;;;;;;;12.55;6.43;;;23.80;99.90;24.50;98644.00;;;;5026403;28;86880;-60
2022/06/03 04:04:53;;;;;;;11.32;6.85;;;23.60;99.90;24.20;98638.00;;;;5030248;28;86979;-60
2022/06/03 04:07:32;;;;;;;14.57;7.70;;;23.40;99.90;24.10;98623.00;;;;5029652;28;89435;-60
2022/06/03 04:09:59;;;;;;;12.73;6.63;;;;;24.40;98618.00;;;;5034731;28;88424;-60
2022/06/03 04:12:58;;;;;;;17.88;6.75;;;23.80;99.90;24.60;98607.00;;;;5033647;28;87540;-60
2022/06/03 04:16:20;;;;;;;13.82;7.40;;;24.20;99.90;25.20;98627.00;;;;5037471;28;87443;-60
2022/06/03 04:19:10;;;;;;;11.50;7.05;;;24.70;99.90;25.40;98629.00;;;;5032744;28;87723;-61
2022/06/03 04:22:06;;;;;;;12.00;6.13;;;24.50;99.90;25.30;98622.00;;;;5030582;28;87235;-61
2022/06/03 04:25:34;;;;;;;13.23;6.53;;;24.60;99.90;25.50;98629.00;;;;5013183;28;88071;-61
2022/06/03 04:28:20;;;;;;;12.90;6.28;;;24.70;99.90;25.60;98625.00;;;;5024044;28;86320;-59
2022/06/03 04:30:55;;;;;;;13.30;6.03;;;24.80;99.90;25.50;98624.00;;;;5015697;28;88814;-60
2022/06/03 04:33:52;;;;;;;10.07;6.00;;;24.70;99.90;25.60;98627.00;;;;5031799;28;87336;-60
2022/06/03 04:36:37;;;;;;;14.02;6.32;;;24.80;99.90;25.60;98622.00;;;;5032518;28;88035;-60
2022/06/03 04:39:32;;;;;;;9.48;5.82;;;24.80;99.90;25.70;98621.00;;;;5034755;28;87479;-60
2022/06/03 04:42:35;;;;;;;9.77;5.65;;;24.80;99.90;25.90;98598.00;;;;5010481;28;87552;-59
2022/06/03 04:45:07;;;;;;;13.60;6.30;;;25.00;99.90;25.70;98584.00;;;;5033169;28;87110;-60
2022/06/03 04:48:07;;;;;;;10.73;6.90;;;24.80;99.90;25.60;98588.00;;;;5033126;28;87065;-59
2022/06/03 04:51:14;;;;;;;11.20;6.85;;;24.70;99.90;25.70;98575.00;;;;5012794;28;87055;-60
2022/06/03 04:54:36;;;;;;;10.93;5.72;;;24.90;99.90;26.10;98565.00;;;;5030878;28;88116;-61
2022/06/03 04:57:14;;;;;;;;;;;25.20;99.90;26.20;98563.00;;;;5016958;28;89690;-59
2022/06/03 05:00:06;;;;;;;10.75;6.68;;;25.20;99.90;26.20;98559.00;;;;5015544;28;86986;-60
2022/06/03 05:03:32;;;;;;;14.23;6.57;;;25.20;99.90;26.20;98553.00;;;;5032600;28;87173;-59
2022/06/03 05:06:40;;;;;;;13.80;6.80;;;25.30;99.90;26.30;98554.00;;;;5022844;28;88542;-61
2022/06/03 05:10:16;;;;;;;14.80;6.70;;;25.40;99.90;26.60;98567.00;;;;5026960;28;89749;-61
2022/06/03 05:13:12;;;;;;;12.48;6.40;;;25.70;99.90;26.50;98568.00;;;;4981613;28;87039;-60
2022/06/03 05:16:20;;;;;;;13.25;7.85;;;25.60;99.90;26.60;98575.00;;;;4970327;28;87450;-60
2022/06/03 05:18:54;;;;;;;9.75;6.30;;;25.60;99.90;26.60;98578.00;;;;5019282;28;87695;-60
2022/06/03 05:21:47;;;;;;;13.93;6.70;;;25.60;99.90;26.60;98567.00;;;;5029945;28;87684;-61
2022/06/03 05:24:38;;;;;;;12.20;6.72;;;25.70;99.90;26.60;98586.00;;;;5030271;28;87185;-60
2022/06/03 05:27:44;;;;;;;10.35;6.45;;;25.70;99.90;25.30;98582.00;;;;5032620;28;86644;-60
2022/06/03 05:30:56;;;;;;;10.15;6.63;;;24.60;99.90;24.80;98589.00;;;;5031612;28;87496;-59
2022/06/03 05:34:02;;;;;;;12.88;7.60;;;24.10;99.90;24.00;98602.00;;;;5028998;28;88547;-60
2022/06/03 05:36:50;;;;;;;13.48;8.35;;;23.50;99.90;23.50;98609.00;;;;5030611;28;87900;-60
2022/06/03 05:39:59;;;;;;;13.73;7.78;;;22.90;99.90;22.70;98616.00;;;;5012961;28;87046;-60
2022/06/03 05:42:37;;;;;;;12.35;8.60;;;22.30;99.90;22.20;98623.00;;;;5035818;28;87527;-60
2022/06/03 05:45:51;;;;;;;11.63;8.52;;;21.80;99.90;21.70;98628.00;;;;5028206;27;87190;-61
2022/06/03 05:48:39;;;;;;;17.95;10.32;;;21.40;99.90;21.40;98627.00;;;;5030397;28;87010;-60
2022/06/03 05:51:14;;;;;;;14.77;10.30;;;21.00;99.90;21.40;98627.00;;;;5031091;28;88448;-61
2022/06/03 05:53:48;;;;;;;21.65;9.85;;;21.00;99.90;21.50;98624.00;;;;5029411;28;87589;-60
2022/06/03 05:56:38;;;;;;;12.90;9.77;;;21.10;99.90;21.50;98626.00;;;;5033281;28;88446;-60
2022/06/03 05:59:36;;;;;;;16.58;9.60;;;21.10;99.90;21.40;98617.00;;;;5014717;28;87451;-60
2022/06/03 06:02:30;;;;;;;16.80;10.25;;;21.00;99.90;21.30;98610.00;;;;4980582;28;87169;-60
2022/06/03 06:05:08;;;;;;;17.13;10.38;;;20.90;99.90;21.20;98605.00;;;;5015604;28;88539;-60
2022/06/03 06:08:07;;;;;;;19.40;14.48;;;20.80;99.90;20.90;98612.00;;;;5028024;28;88206;-60
2022/06/03 06:11:19;;;;;;;22.10;15.48;;;20.60;99.90;20.90;98591.00;;;;5031968;28;87322;-60
2022/06/03 06:13:48;;;;;;;18.35;15.02;;;20.50;99.90;20.80;98597.00;;;;5016458;28;86897;-60
2022/06/03 06:16:33;;;;;;;19.80;16.27;;;20.60;99.90;20.80;98597.00;;;;5028636;28;87625;-60
2022/06/03 06:19:07;;;;;;;17.90;15.27;;;20.40;99.90;20.90;98590.00;;;;5008932;28;87663;-60
2022/06/03 06:22:17;;;;;;;23.25;15.48;;;20.50;99.90;21.00;98593.00;;;;5030326;28;86960;-61
2022/06/03 06:25:12;;;;;;;17.58;15.52;;;20.60;99.90;21.30;98601.00;;;;5027854;28;87000;-60
2022/06/03 06:28:01;;;;;;;18.52;14.88;;;20.80;99.90;21.50;98598.00;;;;4975072;28;88893;-60
2022/06/03 06:30:49;;;;;;;20.40;15.38;;;21.00;99.90;21.60;98601.00;;;;5026060;28;87106;-60
2022/06/03 06:33:54;;;;;;;18.65;15.00;;;21.10;99.90;21.70;98608.00;;;;5024437;28;88188;-61
2022/06/03 06:36:38;;;;;;;22.35;15.68;;;21.20;99.90;21.50;98604.00;;;;5025062;28;86974;-61
2022/06/03 06:39:41;;;;;;;23.15;15.00;;;21.00;99.90;21.00;98614.00;;;;5026321;28;88943;-61
2022/06/03 06:42:44;;;;;;;17.38;14.45;;;20.70;99.90;20.50;98627.00;;;;5014448;28;88540;-61
2022/06/03 06:45:12;;;;;;;17.27;14.25;;;20.20;99.90;20.20;98654.00;;;;5030592;28;86902;-62
2022/06/03 06:47:50;;;;;;;24.45;14.10;;;19.90;99.90;19.60;98634.00;;;;5030498;28;86959;-62
2022/06/03 06:50:22;;;;;;;19.45;11.02;;;19.30;99.90;19.00;98656.00;;;;5011363;28;87716;-62
2022/06/03 06:53:03;;;;;;;13.50;9.55;;;18.70;99.90;18.30;98671.00;;;;5029489;28;87692;-63
2022/06/03 06:55:51;;;;;;;15.15;11.20;;;18.20;99.90;18.00;98664.00;;;;5028716;28;87545;-62
2022/06/03 06:58:33;;;;;;;9.82;8.50;;;17.70;99.90;17.60;98657.00;;;;5030497;28;86857;-62
2022/06/03 07:01:03;;;;;;;14.55;10.80;;;17.40;99.90;17.50;98654.00;;;;5029089;28;88667;-62
2022/06/03 07:03:55;;;;;;;12.40;10.80;;;17.30;99.90;17.30;98653.00;;;;5009303;28;89787;-63
2022/06/03 07:06:29;;;;;;;;;;;17.10;99.90;17.20;98647.00;;;;5030974;28;86905;-62
2022/06/03 07:09:46;;;;;;;14.43;11.57;;;17.10;99.90;17.20;98629.00;;;;4991380;28;87113;-62
2022/06/03 07:12:17;;;;;;;11.95;9.82;;;17.00;99.90;17.10;98632.00;;;;4987753;28;89683;-62
2022/06/03 07:15:00;;;;;;;13.60;8.47;;;16.90;99.90;17.00;98610.00;;;;4985747;28;87225;-62
2022/06/03 07:20:41;;;;;;;11.90;8.63;;;16.90;99.90;17.10;98613.00;;;;4990019;28;86383;-61
2022/06/03 07:23:23;;;;;;;12.90;9.77;;;16.90;99.90;17.10;98603.00;;;;4990385;28;87672;-61
2022/06/03 07:26:24;;;;;;;11.38;7.32;;;16.90;99.90;17.10;98587.00;;;;4986332;28;87299;-61
2022/06/03 07:29:13;;;;;;;14.02;7.32;;;17.00;99.90;17.20;98591.00;;;;4990499;28;88281;-61
2022/06/03 07:32:10;;;;;;;11.98;6.38;;;17.10;99.90;17.50;98603.00;;;;4969773;28;87741;-61
2022/06/03 07:34:47;;;;;;;13.30;6.95;;;17.30;99.90;17.70;98597.00;;;;4971549;28;88793;-61
2022/06/03 07:37:57;;;;;;;10.38;6.63;;;17.60;99.90;17.90;98591.00;;;;4970758;28;87378;-61
2022/06/03 07:40:37;;;;;;;10.63;7.72;;;17.70;99.90;18.10;98605.00;;;;4961057;28;88058;-61
2022/06/03 07:43:25;;;;;;;10.85;7.28;;;17.90;99.90;18.40;98605.00;;;;4989851;28;86955;-61
2022/06/03 07:45:58;;;;;;;11.20;7.35;;;18.20;99.90;18.60;98602.00;;;;4990678;28;87907;-61
2022/06/03 07:48:28;;;;;;;10.23;8.20;;;18.40;99.90;18.70;98605.00;;;;4987253;28;87060;-59
2022/06/03 07:51:10;;;;;;;11.07;7.55;;;18.60;99.90;19.00;98606.00;;;;4988295;28;86984;-62
2022/06/03 07:54:03;;;;;;;12.90;7.43;;;18.70;99.90;19.20;98606.00;;;;4988981;28;86948;-59
2022/06/03 07:56:37;;;;;;;12.65;7.18;;;19.00;99.90;19.20;98599.00;;;;4989165;28;88710;-60
2022/06/03 07:59:19;;;;;;;9.45;6.68;;;19.00;99.90;19.50;98601.00;;;;4988931;28;89087;-60
2022/06/03 08:02:22;;;;;;;11.95;6.90;;;19.30;99.90;19.70;98610.00;;;;4987967;28;87053;-60
2022/06/03 08:05:18;;;;;;;9.65;7.40;;;19.40;99.90;19.90;98614.00;;;;4986311;28;87850;-60
2022/06/03 08:10:59;;;;;;;10.35;7.15;;;19.80;99.90;20.20;98607.00;;;;5008365;28;88051;-60
2022/06/03 08:13:41;;;;;;;10.40;7.25;;;19.80;99.90;19.90;98613.00;;;;5009640;28;87470;-60
2022/06/03 08:16:15;;;;;;;11.20;7.90;;;19.60;99.90;20.00;98606.00;;;;5009057;28;86372;-60
2022/06/03 08:18:43;;;;;;;10.50;7.53;;;19.60;99.90;20.00;98598.00;;;;5007458;28;87686;-60
2022/06/03 08:21:20;;;;;;;8.57;7.15;;;19.70;99.90;20.20;98602.00;;;;5005284;28;88467;-61
2022/06/03 08:23:47;;;;;;;8.98;5.88;;;19.70;99.90;20.10;98605.00;;;;5007462;28;88020;-62
2022/06/03 08:26:21;;;;;;;8.55;6.47;;;19.70;99.90;20.20;98613.00;;;;4987905;28;87183;-61
2022/06/03 08:29:02;;;;;;;9.95;7.50;;;19.80;99.90;20.30;98614.00;;;;5006290;28;87061;-64
2022/06/03 08:31:31;;;;;;;10.18;6.90;;;19.90;99.90;20.40;98603.00;;;;5008032;28;89331;-62
2022/06/03 08:33:59;;;;;;;10.30;6.93;;;20.00;99.90;20.60;98603.00;;;;5004627;28;87439;-62
2022/06/03 08:36:36;;;;;;;10.75;6.70;;;20.30;99.90;20.80;98612.00;;;;5010789;28;87012;-62
2022/06/03 08:39:19;;;;;;;8.00;6.15;;;20.40;99.90;21.00;98618.00;;;;5012202;28;87649;-62
2022/06/03 08:42:22;;;;;;;9.25;6.85;;;20.60;99.90;21.30;98618.00;;;;5004260;28;87346;-62
2022/06/03 08:45:45;;;;;;;7.75;6.95;;;20.90;99.90;21.20;98616.00;;;;5013497;28;87062;-62
2022/06/03 08:48:14;;;;;;;14.55;8.00;;;20.80;99.90;21.10;98621.00;;;;5022797;28;87067;-62
2022/06/03 08:51:01;;;;;;;11.55;6.28;;;20.70;99.90;20.90;98637.00;;;;5007254;28;89738;-62
2022/06/03 08:53:53;;;;;;;7.43;6.15;;;20.50;99.90;20.80;98639.00;;;;4997426;28;89746;-61
2022/06/03 08:57:01;;;;;;;6.82;6.10;;;20.40;99.90;20.90;98649.00;;;;4995908;28;87368;-62
2022/06/03 08:59:47;;;;;;;7.68;6.57;;;20.60;99.90;21.40;98640.00;;;;4972411;28;87230;-62
2022/06/03 09:02:47;;;;;;;10.27;6.95;;;21.00;99.90;21.50;98652.00;;;;5008405;28;87622;-61
2022/06/03 09:05:37;;;;;;;7.68;6.88;;;21.10;99.90;21.60;98644.00;;;;5022197;28;88053;-62
2022/06/03 09:08:35;;;;;;;8.55;7.03;;;21.20;99.90;21.70;98651.00;;;;5009736;28;87223;-62
2022/06/03 09:11:14;;;;;;;7.55;6.82;;;21.30;99.90;21.70;98647.00;;;;4970821;28;86910;-62
2022/06/03 09:14:03;;;;;;;8.57;7.68;;;21.30;99.90;21.70;98651.00;;;;5018859;28;88295;-62
2022/06/03 09:16:32;;;;;;;8.60;7.68;;;21.40;99.90;21.80;98657.00;;;;5008511;28;87199;-62
2022/06/03 09:19:07;;;;;;;10.13;7.40;;;21.30;99.90;21.40;98655.00;;;;5015548;28;88172;-62
2022/06/03 09:21:41;;;;;;;8.65;7.55;;;21.00;99.90;20.90;98656.00;;;;5034609;28;87679;-63
2022/06/03 09:24:14;;;;;;;9.25;8.25;;;20.60;99.90;20.60;98657.00;;;;5009628;28;87816;-62
2022/06/03 09:26:50;;;;;;;11.20;7.97;;;20.20;99.90;20.40;98652.00;;;;5008553;28;87410;-62
2022/06/03 09:29:17;;;;;;;10.27;7.53;;;20.10;99.90;20.30;98667.00;;;;5008757;28;87616;-62
2022/06/03 09:31:50;;;;;;;10.18;7.43;;;20.00;99.90;20.30;98668.00;;;;5010866;28;87728;-62
2022/06/03 09:34:22;;;;;;;9.32;7.60;;;20.00;99.90;20.40;98670.00;;;;5009359;28;88589;-62
2022/06/03 09:36:49;;;;;;;11.98;8.35;;;20.00;99.90;20.30;98670.00;;;;5010044;28;87282;-61
2022/06/03 09:39:19;;;;;;;11.73;7.70;;;19.80;99.90;19.90;98667.00;;;;5006906;28;87016;-62
2022/06/03 09:41:53;;;;;;;10.48;7.95;;;19.60;99.90;19.80;98674.00;;;;5007209;28;87954;-61
2022/06/03 09:44:23;;;;;;;13.02;9.05;;;19.40;99.90;19.60;98670.00;;;;5009820;28;88410;-61
2022/06/03 09:47:00;;;;;;;11.07;7.80;;;19.30;99.90;19.40;98669.00;;;;5008213;28;88255;-62
2022/06/03 09:49:29;;;;;;;12.02;7.60;;;19.10;99.90;19.20;98681.00;;;;5011024;28;87717;-61
2022/06/03 09:51:55;;;;;;;7.80;6.95;;;18.90;99.90;19.20;98686.00;;;;5013504;28;87092;-61
2022/06/03 09:54:36;;;;;;;11.25;7.85;;;18.90;99.90;19.10;98679.00;;;;5012341;28;88582;-61
2022/06/03 09:57:42;;;;;;;10.48;7.57;;;18.90;99.90;19.30;98680.00;;;;5012121;28;87562;-62
2022/06/03 10:00:36;;;;;;;11.23;8.27;;;18.90;99.90;19.40;98686.00;;;;5010397;28;87142;-61
2022/06/03 10:03:03;;;;;;;12.27;8.02;;;19.10;99.90;19.40;98669.00;;;;5003495;28;86855;-61
2022/06/03 10:05:30;;;;;;;9.85;6.90;;;19.10;99.90;19.80;98661.00;;;;5009861;28;88790;-61
2022/06/03 10:08:07;;;;;;;10.40;7.40;;;19.40;99.90;20.10;98661.00;;;;5022751;28;88534;-63
2022/06/03 10:13:19;;;;;;;7.82;6.47;;;19.90;99.90;20.30;98662.00;;;;5031816;28;86948;-63
2022/06/03 10:15:53;;;;;;;9.30;6.45;;;19.90;99.90;20.20;98654.00;;;;5010251;28;89893;-61
2022/06/03 10:18:41;;;;;;;11.18;6.70;;;19.90;99.90;20.30;98648.00;;;;5014154;28;87232;-63
2022/06/03 10:21:14;;;;;;;8.07;6.60;;;20.10;99.90;20.70;98644.00;;;;5013777;28;87137;-62
2022/06/03 10:24:00;;;;;;;10.55;7.03;;;20.30;99.90;20.70;98653.00;;;;5029230;28;87024;-62
2022/06/03 10:26:50;;;;;;;11.43;6.70;;;20.40;99.90;20.40;98656.00;;;;5013102;28;89309;-62
2022/06/03 10:29:23;;;;;;;10.60;6.53;;;20.10;99.90;20.40;98654.00;;;;5019645;28;87161;-62
2022/06/03 10:32:10;;;;;;;11.80;6.60;;;20.10;99.90;20.20;98659.00;;;;5030050;28;87101;-62
2022/06/03 10:34:41;;;;;;;12.25;6.53;;;19.90;99.90;20.10;98662.00;;;;5028677;28;87338;-62
2022/06/03 10:37:24;;;;;;;7.30;6.20;;;19.70;99.90;19.90;98665.00;;;;5030465;28;88503;-62
2022/06/03 10:39:57;;;;;;;9.18;6.45;;;19.60;99.90;19.60;98672.00;;;;5033370;28;89168;-63
2022/06/03 10:42:24;;;;;;;12.48;7.43;;;19.30;99.90;19.50;98666.00;;;;5028904;28;86856;-63
2022/06/03 10:44:58;;;;;;;7.82;5.60;;;19.30;99.90;19.40;98674.00;;;;5032800;28;86870;-61
2022/06/03 10:47:40;;;;;;;8.98;5.50;;;19.20;99.90;19.40;98693.00;;;;5031073;28;87515;-62
2022/06/03 10:50:28;;;;;;;7.15;4.88;;;19.20;99.90;19.60;98689.00;;;;5027749;28;88377;-62
2022/06/03 11:01:45;;;;;;;;;;;19.10;99.90;19.40;98720.00;;;;5031354;28;88448;-62
2022/06/03 11:04:33;;;;;;;5.80;4.00;;;19.10;99.90;19.40;98731.00;;;;5029352;28;87784;-62
2022/06/03 11:07:21;;;;;;;4.60;3.92;;;19.10;99.90;19.60;98730.00;;;;5033184;28;87364;-62
2022/06/03 11:09:56;;;;;;;9.18;4.88;;;19.30;99.90;19.30;98734.00;;;;5028120;28;87810;-62
2022/06/03 11:12:25;;;;;;;8.00;4.25;;;19.10;99.90;19.60;98727.00;;;;5013253;28;87436;-63
2022/06/03 11:14:52;;;;;;;5.68;4.03;;;19.20;99.90;19.40;98748.00;;;;5027610;28;87321;-62
2022/06/03 11:17:23;;;;;;;9.18;5.15;;;19.10;99.90;19.20;98749.00;;;;5027433;28;87292;-62
2022/06/03 11:19:56;;;;;;;6.50;4.75;;;18.90;99.90;18.90;98769.00;;;;5013039;28;88035;-62
2022/06/03 11:22:31;;;;;;;6.63;4.43;;;18.70;99.90;18.50;98768.00;;;;5029099;28;87280;-62
2022/06/03 11:25:02;;;;;;;12.65;5.25;;;18.30;99.90;18.40;98760.00;;;;5029779;28;87202;-62
2022/06/03 11:28:01;;;;;;;9.68;5.05;;;18.10;99.90;18.40;98779.00;;;;5027976;28;87936;-63
2022/06/03 11:30:59;;;;;;;10.13;5.07;;;18.10;99.90;18.60;98772.00;;;;4977758;28;88597;-62
2022/06/03 11:33:36;;;;;;;10.73;4.65;;;18.30;99.90;18.60;98799.00;;;;5025345;28;89349;-62
2022/06/03 11:36:21;;;;;;;9.40;4.75;;;18.40;99.90;18.30;98783.00;;;;5010292;28;87126;-63
2022/06/03 11:38:55;;;;;;;9.05;4.65;;;18.10;99.90;18.40;98793.00;;;;5011638;28;86907;-63
2022/06/03 11:41:54;;;;;;;11.02;4.25;;;18.10;99.90;18.10;98815.00;;;;4993375;28;89816;-61
2022/06/03 11:44:40;;;;;;;7.78;5.43;;;17.90;99.90;17.90;98804.00;;;;5031975;28;88340;-62
2022/06/03 11:47:40;;;;;;;9.20;4.93;;;17.70;99.90;17.90;98802.00;;;;5009974;28;88000;-63
2022/06/03 11:50:09;;;;;;;12.90;4.70;;;17.70;99.90;18.10;98819.00;;;;5025813;28;87069;-63
2022/06/03 11:52:36;;;;;;;6.63;4.93;;;17.80;99.90;18.00;98822.00;;;;5030987;28;87667;-62
2022/06/03 11:55:03;;;;;;;8.38;4.82;;;17.80;99.90;18.10;98810.00;;;;5027944;28;87491;-62
2022/06/03 11:57:30;;;;;;;8.73;5.22;;;17.70;99.90;17.90;98815.00;;;;5012950;28;88331;-61
2022/06/03 12:00:04;;;;;;;8.88;4.60;;;17.70;99.90;18.00;98813.00;;;;5015017;28;87357;-63
2022/06/03 12:03:12;;;;;;;10.77;4.03;;;17.70;99.90;18.10;98820.00;;;;5028418;28;88617;-62
2022/06/03 12:05:51;;;;;;;10.25;4.85;;;17.80;99.90;17.90;98825.00;;;;5025679;28;87509;-62
2022/06/03 12:08:42;;;;;;;9.45;4.30;;;17.60;99.90;17.70;98830.00;;;;5009075;28;86979;-61
2022/06/03 12:14:38;;;;;;;5.88;5.25;;;17.20;99.90;16.90;98840.00;;;;5010329;28;87688;-61
2022/06/03 12:17:12;;;;;;;10.18;4.38;;;16.80;99.90;16.80;98834.00;;;;5006800;28;87412;-61
2022/06/03 12:19:42;;;;;;;6.28;4.40;;;16.60;99.90;16.50;98829.00;;;;5006162;28;87622;-61
2022/06/03 12:22:28;;;;;;;6.20;3.92;;;16.50;99.90;16.90;98835.00;;;;5007079;28;87114;-64
2022/06/03 12:25:06;;;;;;;6.13;4.20;;;16.70;99.90;17.10;98850.00;;;;5007892;28;88444;-62
2022/06/03 12:27:38;;;;;;;6.95;4.03;;;16.90;99.90;16.80;98850.00;;;;5009700;28;88347;-62
2022/06/03 12:30:14;;;;;;;7.93;4.07;;;16.70;99.90;16.60;98847.00;;;;5010326;28;87670;-62
2022/06/03 12:33:04;;;;;;;7.43;4.22;;;16.50;99.90;16.40;98851.00;;;;5010817;28;87457;-62
2022/06/03 12:35:47;;;;;;;5.70;3.60;;;16.40;99.90;16.30;98855.00;;;;5037315;28;88275;-62
2022/06/03 12:38:19;;;;;;;11.50;4.00;;;16.10;99.90;16.10;98859.00;;;;5012979;28;87422;-62
2022/06/03 12:40:48;;;;;;;11.68;4.47;;;16.00;99.90;16.20;98862.00;;;;5009769;28;86995;-62